Weather at Jean Airport

Public forecast

Using degrees Fahrenheit for public forecast. Weather courtesy of forecast.io.

Closest aviation weather report (METAR) to Jean Airport

Closest report is Henderson Executive Airport, 15.5 nm (28.8 km) NE.

2024/07/14 01:37 (retrieved 6 minutes ago)

KHND 140137Z 35005KT 10SM CLR 36/12 A2996 RMK AO2 LTG DSNT N AND NW TSE31

Closest aviation forecast (TAF) to Jean Airport

Forecast is more than 6 hours old.

Closest forecast is Creech Air Force Base, 51.9 nm (96.1 km) NNW.

2024/07/13 18:15 Ammendment (retrieved 7 hours ago)

TAF AMD KINS 131810Z 1318/1420 20010G15KT 8000 HZ FEW140 SCT220 QNH3001INS DU BECMG 1318/1319 VRB22G32KT 8000 HZ VCTS BKN100CB QNH2999INS DU TEMPO 1319/1403 VRB33G45KT 6000 -TSRA BKN090CB BECMG 1404/1405 14010G18KT 9999 NSW FEW180 510009 QNH3002INS BECMG 1405/1406 VRB06KT 9999 SKC QNH3003INS BECMG 1418/1419 09010KT 9999 FEW120 QNH3006INS TX40/1320Z TN25/1413Z LAST NO AMDS AFT 1318 NEXT 1505